Time,TemperatureF,DewpointF,PressureIn,WindDirection,WindDirectionDegrees,WindSpeedMPH,WindSpeedGustMPH,Humidity,HourlyPrecipIn,Conditions,Clouds,dailyrainin,SolarRadiationWatts/m^2,SoftwareType,DateUTC
2013-09-21 00:03:00,43.9,40.9,29.89,NNW,342,0.0,1.0,89,0.00,,,0.00,0,Wunderground v.1.15,2013-09-21 05:03:00,
2013-09-21 00:09:00,43.8,40.8,29.89,NNW,342,0.0,1.0,89,0.00,,,0.00,0,Wunderground v.1.15,2013-09-21 05:09:00,
2013-09-21 00:14:00,43.7,40.7,29.89,NNW,342,0.0,1.0,89,0.00,,,0.00,0,Wunderground v.1.15,2013-09-21 05:14:00,
2013-09-21 00:19:00,43.6,40.6,29.89,NNW,342,0.0,1.0,89,0.00,,,0.00,0,Wunderground v.1.15,2013-09-21 05:19:00,
2013-09-21 00:25:00,43.5,40.5,29.89,NNW,342,0.0,0.0,89,0.00,,,0.00,0,Wunderground v.1.15,2013-09-21 05:25:00,
2013-09-21 00:31:00,43.4,40.4,29.89,NNW,342,0.0,0.0,89,0.00,,,0.00,0,Wunderground v.1.15,2013-09-21 05:31:00,
2013-09-21 00:36:00,43.4,40.4,29.89,NNW,342,1.0,1.0,89,0.00,,,0.00,0,Wunderground v.1.15,2013-09-21 05:36:00,
2013-09-21 00:41:00,43.3,40.3,29.89,NNW,342,0.0,1.0,89,0.00,,,0.00,0,Wunderground v.1.15,2013-09-21 05:41:00,
2013-09-21 00:47:00,43.3,40.3,29.89,NNW,342,2.0,2.0,89,0.00,,,0.00,0,Wunderground v.1.15,2013-09-21 05:47:00,
2013-09-21 00:52:00,43.3,40.3,29.89,NNW,342,0.0,1.0,89,0.00,,,0.00,0,Wunderground v.1.15,2013-09-21 05:52:00,
2013-09-21 00:57:00,43.4,40.7,29.89,NNW,342,0.0,1.0,90,0.00,,,0.00,0,Wunderground v.1.15,2013-09-21 05:57:00,
2013-09-21 01:02:00,43.2,40.2,29.89,NNW,342,0.0,0.0,89,0.00,,,0.00,0,Wunderground v.1.15,2013-09-21 06:02:00,
2013-09-21 01:07:00,43.1,40.1,29.88,NNW,342,0.0,0.0,89,0.00,,,0.00,0,Wunderground v.1.15,2013-09-21 06:07:00,
2013-09-21 01:13:00,42.8,40.1,29.88,NNW,342,0.0,0.0,90,0.00,,,0.00,0,Wunderground v.1.15,2013-09-21 06:13:00,
2013-09-21 01:18:00,42.8,40.1,29.88,NNW,342,1.0,1.0,90,0.00,,,0.00,0,Wunderground v.1.15,2013-09-21 06:18:00,
2013-09-21 01:23:00,42.6,39.6,29.89,WSW,238,4.0,4.0,89,0.00,,,0.00,0,Wunderground v.1.15,2013-09-21 06:23:00,
2013-09-21 01:28:00,42.9,40.2,29.89,SW,225,2.0,5.0,90,0.00,,,0.00,0,Wunderground v.1.15,2013-09-21 06:28:00,
2013-09-21 01:33:00,42.5,39.8,29.89,SW,225,0.0,3.0,90,0.00,,,0.00,0,Wunderground v.1.15,2013-09-21 06:33:00,
2013-09-21 01:39:00,42.3,39.6,29.90,SW,225,2.0,3.0,90,0.00,,,0.00,0,Wunderground v.1.15,2013-09-21 06:39:00,
2013-09-21 01:44:00,42.2,39.5,29.89,SW,225,2.0,3.0,90,0.00,,,0.00,0,Wunderground v.1.15,2013-09-21 06:44:00,
2013-09-21 01:49:00,42.1,39.4,29.90,SW,225,0.0,3.0,90,0.00,,,0.00,0,Wunderground v.1.15,2013-09-21 06:49:00,
2013-09-21 01:54:00,42.1,39.4,29.90,SW,225,0.0,1.0,90,0.00,,,0.00,0,Wunderground v.1.15,2013-09-21 06:54:00,
2013-09-21 01:59:00,42.2,39.5,29.90,SW,225,0.0,1.0,90,0.00,,,0.00,0,Wunderground v.1.15,2013-09-21 06:59:00,
2013-09-21 02:04:00,42.2,39.5,29.90,SW,225,0.0,0.0,90,0.00,,,0.00,0,Wunderground v.1.15,2013-09-21 07:04:00,
2013-09-21 02:09:00,42.2,39.5,29.90,SW,225,0.0,0.0,90,0.00,,,0.00,0,Wunderground v.1.15,2013-09-21 07:09:00,
2013-09-21 02:14:00,42.2,39.5,29.90,SW,225,0.0,0.0,90,0.00,,,0.00,0,Wunderground v.1.15,2013-09-21 07:14:00,
2013-09-21 02:19:00,42.1,39.4,29.90,SW,225,0.0,1.0,90,0.00,,,0.00,0,Wunderground v.1.15,2013-09-21 07:19:00,
2013-09-21 02:25:00,42.0,39.3,29.89,SW,225,0.0,0.0,90,0.00,,,0.00,0,Wunderground v.1.15,2013-09-21 07:25:00,
2013-09-21 02:30:00,42.0,39.3,29.89,SW,225,0.0,0.0,90,0.00,,,0.00,0,Wunderground v.1.15,2013-09-21 07:30:00,
2013-09-21 02:35:00,41.9,39.2,29.89,SW,225,0.0,0.0,90,0.00,,,0.00,0,Wunderground v.1.15,2013-09-21 07:35:00,
2013-09-21 02:40:00,41.8,39.1,29.89,SW,225,0.0,0.0,90,0.00,,,0.00,0,Wunderground v.1.15,2013-09-21 07:40:00,
2013-09-21 02:45:00,41.8,39.1,29.89,SW,225,0.0,0.0,90,0.00,,,0.00,0,Wunderground v.1.15,2013-09-21 07:45:00,
2013-09-21 02:50:00,41.9,39.2,29.88,SW,225,0.0,0.0,90,0.00,,,0.00,0,Wunderground v.1.15,2013-09-21 07:50:00,
2013-09-21 02:55:00,41.8,39.1,29.89,SW,225,0.0,0.0,90,0.00,,,0.00,0,Wunderground v.1.15,2013-09-21 07:55:00,
2013-09-21 03:00:00,41.6,38.9,29.88,SW,225,0.0,0.0,90,0.00,,,0.00,0,Wunderground v.1.15,2013-09-21 08:00:00,
2013-09-21 03:05:00,41.7,39.0,29.88,SW,225,0.0,0.0,90,0.00,,,0.00,0,Wunderground v.1.15,2013-09-21 08:05:00,
2013-09-21 03:10:00,41.8,39.1,29.88,SW,225,0.0,0.0,90,0.00,,,0.00,0,Wunderground v.1.15,2013-09-21 08:10:00,
2013-09-21 03:15:00,41.7,39.0,29.88,SW,225,0.0,0.0,90,0.00,,,0.00,0,Wunderground v.1.15,2013-09-21 08:15:00,
2013-09-21 03:20:00,41.6,38.9,29.88,SW,225,0.0,2.0,90,0.00,,,0.00,0,Wunderground v.1.15,2013-09-21 08:20:00,
2013-09-21 03:25:00,41.4,38.7,29.87,SW,225,0.0,1.0,90,0.00,,,0.00,0,Wunderground v.1.15,2013-09-21 08:25:00,
2013-09-21 03:30:00,41.3,38.6,29.87,SW,225,0.0,1.0,90,0.00,,,0.00,0,Wunderground v.1.15,2013-09-21 08:30:00,
2013-09-21 03:35:00,41.1,38.4,29.87,SW,225,0.0,0.0,90,0.00,,,0.00,0,Wunderground v.1.15,2013-09-21 08:35:00,
2013-09-21 03:40:00,41.1,38.4,29.87,SW,225,0.0,0.0,90,0.00,,,0.00,0,Wunderground v.1.15,2013-09-21 08:40:00,
2013-09-21 03:45:00,40.9,38.2,29.87,SW,225,0.0,0.0,90,0.00,,,0.00,0,Wunderground v.1.15,2013-09-21 08:45:00,
2013-09-21 03:50:00,40.9,38.2,29.86,SW,225,0.0,0.0,90,0.00,,,0.00,0,Wunderground v.1.15,2013-09-21 08:50:00,
2013-09-21 03:55:00,41.0,38.3,29.86,SW,225,0.0,1.0,90,0.00,,,0.00,0,Wunderground v.1.15,2013-09-21 08:55:00,
2013-09-21 04:00:00,41.0,38.3,29.86,SW,225,1.0,2.0,90,0.00,,,0.00,0,Wunderground v.1.15,2013-09-21 09:00:00,
2013-09-21 04:05:00,40.8,38.1,29.86,SW,225,0.0,1.0,90,0.00,,,0.00,0,Wunderground v.1.15,2013-09-21 09:05:00,
2013-09-21 04:10:00,40.8,38.4,29.86,SW,225,0.0,1.0,91,0.00,,,0.00,0,Wunderground v.1.15,2013-09-21 09:10:00,
2013-09-21 04:15:00,40.7,38.3,29.86,SW,225,0.0,0.0,91,0.00,,,0.00,0,Wunderground v.1.15,2013-09-21 09:15:00,
2013-09-21 04:20:00,40.6,37.9,29.85,SW,225,0.0,0.0,90,0.00,,,0.00,0,Wunderground v.1.15,2013-09-21 09:20:00,
2013-09-21 04:25:00,40.7,38.3,29.85,SW,225,0.0,0.0,91,0.00,,,0.00,0,Wunderground v.1.15,2013-09-21 09:25:00,
2013-09-21 04:30:00,40.6,37.9,29.86,SW,225,0.0,0.0,90,0.00,,,0.00,0,Wunderground v.1.15,2013-09-21 09:30:00,
2013-09-21 04:35:00,40.6,38.2,29.86,SW,225,0.0,0.0,91,0.00,,,0.00,0,Wunderground v.1.15,2013-09-21 09:35:00,
2013-09-21 04:40:00,40.5,38.1,29.86,SW,225,1.0,3.0,91,0.00,,,0.00,0,Wunderground v.1.15,2013-09-21 09:40:00,
2013-09-21 04:45:00,40.4,38.0,29.86,SW,225,0.0,3.0,91,0.00,,,0.00,0,Wunderground v.1.15,2013-09-21 09:45:00,
2013-09-21 04:50:00,40.4,38.0,29.85,SW,225,0.0,3.0,91,0.00,,,0.00,0,Wunderground v.1.15,2013-09-21 09:50:00,
2013-09-21 04:55:00,40.4,38.0,29.85,SW,225,0.0,0.0,91,0.00,,,0.00,0,Wunderground v.1.15,2013-09-21 09:55:00,
2013-09-21 05:00:00,40.4,38.0,29.85,SW,225,0.0,0.0,91,0.00,,,0.00,0,Wunderground v.1.15,2013-09-21 10:00:00,
2013-09-21 05:05:00,40.5,38.1,29.85,SW,225,0.0,0.0,91,0.00,,,0.00,0,Wunderground v.1.15,2013-09-21 10:05:00,
2013-09-21 05:10:00,40.6,38.2,29.85,SW,225,0.0,0.0,91,0.00,,,0.00,0,Wunderground v.1.15,2013-09-21 10:10:00,
2013-09-21 05:15:00,40.5,38.1,29.85,SW,225,0.0,0.0,91,0.00,,,0.00,0,Wunderground v.1.15,2013-09-21 10:15:00,
2013-09-21 05:20:00,40.2,37.8,29.85,SW,225,0.0,0.0,91,0.00,,,0.00,0,Wunderground v.1.15,2013-09-21 10:20:00,
2013-09-21 05:25:00,40.0,37.6,29.85,SW,225,0.0,0.0,91,0.00,,,0.00,0,Wunderground v.1.15,2013-09-21 10:25:00,
2013-09-21 05:30:00,39.9,37.5,29.85,SW,225,0.0,0.0,91,0.00,,,0.00,0,Wunderground v.1.15,2013-09-21 10:30:00,
2013-09-21 05:35:00,40.2,37.8,29.85,SW,225,0.0,2.0,91,0.00,,,0.00,0,Wunderground v.1.15,2013-09-21 10:35:00,
2013-09-21 05:40:00,40.6,38.2,29.85,SW,225,0.0,0.0,91,0.00,,,0.00,0,Wunderground v.1.15,2013-09-21 10:40:00,
2013-09-21 05:45:00,41.0,38.6,29.85,SW,225,0.0,0.0,91,0.00,,,0.00,0,Wunderground v.1.15,2013-09-21 10:45:00,
2013-09-21 05:50:00,41.1,38.7,29.84,SW,225,1.0,2.0,91,0.00,,,0.00,0,Wunderground v.1.15,2013-09-21 10:50:00,
2013-09-21 05:55:00,41.3,38.9,29.84,SW,225,0.0,2.0,91,0.00,,,0.00,0,Wunderground v.1.15,2013-09-21 10:55:00,
2013-09-21 06:00:00,41.2,38.8,29.84,SW,225,0.0,0.0,91,0.00,,,0.00,0,Wunderground v.1.15,2013-09-21 11:00:00,
2013-09-21 06:05:00,41.1,38.7,29.84,SW,225,0.0,0.0,91,0.00,,,0.00,0,Wunderground v.1.15,2013-09-21 11:05:00,
2013-09-21 06:10:00,41.4,39.0,29.84,SW,225,0.0,0.0,91,0.00,,,0.00,0,Wunderground v.1.15,2013-09-21 11:10:00,
2013-09-21 06:15:00,41.4,39.0,29.84,SW,225,1.0,3.0,91,0.00,,,0.00,0,Wunderground v.1.15,2013-09-21 11:15:00,
2013-09-21 06:20:00,41.6,39.2,29.84,SW,225,1.0,2.0,91,0.00,,,0.00,0,Wunderground v.1.15,2013-09-21 11:20:00,
2013-09-21 06:25:00,41.9,39.5,29.84,SW,225,2.0,2.0,91,0.00,,,0.00,0,Wunderground v.1.15,2013-09-21 11:25:00,
2013-09-21 06:30:00,42.2,39.8,29.84,SW,225,0.0,1.0,91,0.00,,,0.00,0,Wunderground v.1.15,2013-09-21 11:30:00,
2013-09-21 06:35:00,42.4,40.0,29.84,SW,225,0.0,2.0,91,0.00,,,0.00,0,Wunderground v.1.15,2013-09-21 11:35:00,
2013-09-21 06:41:00,42.7,40.3,29.84,SW,225,0.0,1.0,91,0.00,,,0.00,0,Wunderground v.1.15,2013-09-21 11:41:00,
2013-09-21 06:46:00,42.8,40.4,29.84,SW,225,0.0,1.0,91,0.00,,,0.00,0,Wunderground v.1.15,2013-09-21 11:46:00,
2013-09-21 06:51:00,43.0,40.6,29.84,SW,225,1.0,1.0,91,0.00,,,0.00,0,Wunderground v.1.15,2013-09-21 11:51:00,
2013-09-21 06:56:00,43.2,40.8,29.83,SW,225,0.0,1.0,91,0.00,,,0.00,0,Wunderground v.1.15,2013-09-21 11:56:00,
2013-09-21 07:01:00,43.4,40.9,29.83,SW,225,0.0,0.0,91,0.00,,,0.00,0,Wunderground v.1.15,2013-09-21 12:01:00,
2013-09-21 07:06:00,43.4,40.9,29.83,SW,225,0.0,0.0,91,0.00,,,0.00,0,Wunderground v.1.15,2013-09-21 12:06:00,
2013-09-21 07:11:00,43.3,40.8,29.83,SW,225,0.0,0.0,91,0.00,,,0.00,0,Wunderground v.1.15,2013-09-21 12:11:00,
2013-09-21 07:16:00,43.1,40.7,29.83,SW,225,0.0,0.0,91,0.00,,,0.00,0,Wunderground v.1.15,2013-09-21 12:16:00,
2013-09-21 07:21:00,43.0,40.6,29.84,SW,225,0.0,0.0,91,0.00,,,0.00,0,Wunderground v.1.15,2013-09-21 12:21:00,
2013-09-21 07:26:00,42.9,40.5,29.83,SW,225,0.0,0.0,91,0.00,,,0.00,7,Wunderground v.1.15,2013-09-21 12:26:00,
2013-09-21 07:31:00,42.7,40.3,29.84,SW,225,0.0,0.0,91,0.00,,,0.00,9,Wunderground v.1.15,2013-09-21 12:31:00,
2013-09-21 07:36:00,42.6,40.2,29.83,SW,225,0.0,1.0,91,0.00,,,0.00,12,Wunderground v.1.15,2013-09-21 12:36:00,
2013-09-21 07:41:00,42.7,40.3,29.83,SW,225,0.0,0.0,91,0.00,,,0.00,18,Wunderground v.1.15,2013-09-21 12:41:00,
2013-09-21 07:46:00,43.1,40.7,29.84,SW,225,0.0,2.0,91,0.00,,,0.00,26,Wunderground v.1.15,2013-09-21 12:46:00,
2013-09-21 08:04:00,45.5,43.0,29.84,SW,224,2.0,2.0,91,0.00,,,0.00,67,Wunderground v.1.15,2013-09-21 13:04:00,
2013-09-21 08:09:00,46.4,43.9,29.84,SW,221,1.0,1.0,91,0.00,,,0.00,81,Wunderground v.1.15,2013-09-21 13:09:00,
2013-09-21 08:14:00,47.7,45.2,29.84,SW,218,0.0,3.0,91,0.00,,,0.00,97,Wunderground v.1.15,2013-09-21 13:14:00,
2013-09-21 08:19:00,49.0,46.5,29.84,SW,218,0.0,1.0,91,0.00,,,0.00,113,Wunderground v.1.15,2013-09-21 13:19:00,
2013-09-21 08:24:00,50.1,47.6,29.84,SW,218,0.0,2.0,91,0.00,,,0.00,127,Wunderground v.1.15,2013-09-21 13:24:00,
2013-09-21 08:29:00,51.2,48.4,29.84,SSW,211,2.0,3.0,90,0.00,,,0.00,142,Wunderground v.1.15,2013-09-21 13:29:00,
2013-09-21 08:34:00,51.9,49.1,29.84,South,170,4.0,5.0,90,0.00,,,0.00,160,Wunderground v.1.15,2013-09-21 13:34:00,
2013-09-21 08:39:00,52.4,49.3,29.84,SSE,160,5.0,5.0,89,0.00,,,0.00,179,Wunderground v.1.15,2013-09-21 13:39:00,
2013-09-21 08:44:00,52.9,49.1,29.84,SSE,157,4.0,7.0,87,0.00,,,0.00,197,Wunderground v.1.15,2013-09-21 13:44:00,
2013-09-21 08:49:00,53.5,49.4,29.84,South,171,6.0,8.0,86,0.00,,,0.00,213,Wunderground v.1.15,2013-09-21 13:49:00,
2013-09-21 08:54:00,54.1,49.7,29.83,SSE,163,5.0,10.0,85,0.00,,,0.00,229,Wunderground v.1.15,2013-09-21 13:54:00,
2013-09-21 08:59:00,54.6,49.9,29.83,SSE,161,5.0,6.0,84,0.00,,,0.00,243,Wunderground v.1.15,2013-09-21 13:59:00,
2013-09-21 09:04:00,55.2,50.1,29.83,SSE,167,6.0,9.0,83,0.00,,,0.00,258,Wunderground v.1.15,2013-09-21 14:04:00,
2013-09-21 09:09:00,55.8,50.4,29.83,South,176,9.0,10.0,82,0.00,,,0.00,274,Wunderground v.1.15,2013-09-21 14:09:00,
2013-09-21 09:14:00,56.2,50.4,29.83,SSE,167,7.0,11.0,81,0.00,,,0.00,288,Wunderground v.1.15,2013-09-21 14:14:00,
2013-09-21 09:19:00,56.7,50.9,29.83,South,182,5.0,11.0,81,0.00,,,0.00,306,Wunderground v.1.15,2013-09-21 14:19:00,
2013-09-21 09:24:00,57.1,51.0,29.83,South,179,7.0,11.0,80,0.00,,,0.00,325,Wunderground v.1.15,2013-09-21 14:24:00,
2013-09-21 09:29:00,57.5,50.7,29.83,South,181,9.0,13.0,78,0.00,,,0.00,346,Wunderground v.1.15,2013-09-21 14:29:00,
2013-09-21 09:34:00,57.8,50.6,29.83,South,177,8.0,13.0,77,0.00,,,0.00,367,Wunderground v.1.15,2013-09-21 14:34:00,
2013-09-21 09:39:00,58.3,50.8,29.83,South,175,8.0,13.0,76,0.00,,,0.00,385,Wunderground v.1.15,2013-09-21 14:39:00,
2013-09-21 09:44:00,58.7,51.5,29.82,South,180,13.0,13.0,77,0.00,,,0.00,401,Wunderground v.1.15,2013-09-21 14:44:00,
2013-09-21 09:49:00,59.2,51.3,29.82,SSE,155,10.0,13.0,75,0.00,,,0.00,418,Wunderground v.1.15,2013-09-21 14:49:00,
2013-09-21 09:54:00,59.8,52.6,29.82,South,170,7.0,14.0,77,0.00,,,0.00,432,Wunderground v.1.15,2013-09-21 14:54:00,
2013-09-21 09:59:00,60.4,52.1,29.82,South,180,8.0,14.0,74,0.00,,,0.00,448,Wunderground v.1.15,2013-09-21 14:59:00,
2013-09-21 10:04:00,60.8,52.5,29.82,SSE,163,10.0,12.0,74,0.00,,,0.00,457,Wunderground v.1.15,2013-09-21 15:04:00,
2013-09-21 10:09:00,61.2,52.1,29.82,South,169,10.0,12.0,72,0.00,,,0.00,475,Wunderground v.1.15,2013-09-21 15:09:00,
2013-09-21 10:14:00,61.7,53.0,29.82,SSE,168,10.0,13.0,73,0.00,,,0.00,489,Wunderground v.1.15,2013-09-21 15:14:00,
2013-09-21 10:19:00,62.2,53.4,29.82,SSE,148,8.0,15.0,73,0.00,,,0.00,503,Wunderground v.1.15,2013-09-21 15:19:00,
2013-09-21 10:24:00,62.8,53.6,29.82,SSE,157,12.0,14.0,72,0.00,,,0.00,519,Wunderground v.1.15,2013-09-21 15:24:00,
2013-09-21 10:29:00,63.3,53.3,29.82,South,176,11.0,14.0,70,0.00,,,0.00,531,Wunderground v.1.15,2013-09-21 15:29:00,
2013-09-21 10:34:00,63.7,53.7,29.81,SSE,165,9.0,14.0,70,0.00,,,0.00,541,Wunderground v.1.15,2013-09-21 15:34:00,
2013-09-21 10:39:00,64.1,53.7,29.81,SE,144,10.0,15.0,69,0.00,,,0.00,554,Wunderground v.1.15,2013-09-21 15:39:00,
2013-09-21 10:44:00,64.7,55.1,29.81,SSE,156,10.0,12.0,71,0.00,,,0.00,568,Wunderground v.1.15,2013-09-21 15:44:00,
2013-09-21 10:49:00,65.3,54.1,29.81,SSE,165,8.0,14.0,67,0.00,,,0.00,582,Wunderground v.1.15,2013-09-21 15:49:00,
2013-09-21 10:54:00,65.9,54.6,29.81,SSE,155,5.0,12.0,67,0.00,,,0.00,594,Wunderground v.1.15,2013-09-21 15:54:00,
2013-09-21 10:59:00,66.3,54.2,29.81,SSE,161,5.0,14.0,65,0.00,,,0.00,606,Wunderground v.1.15,2013-09-21 15:59:00,
2013-09-21 11:04:00,66.8,54.7,29.81,SE,130,9.0,11.0,65,0.00,,,0.00,615,Wunderground v.1.15,2013-09-21 16:04:00,
2013-09-21 11:09:00,67.0,54.8,29.81,SE,146,8.0,13.0,65,0.00,,,0.00,624,Wunderground v.1.15,2013-09-21 16:09:00,
2013-09-21 11:14:00,67.6,54.6,29.80,SE,144,11.0,15.0,63,0.00,,,0.00,635,Wunderground v.1.15,2013-09-21 16:14:00,
2013-09-21 11:19:00,67.9,55.3,29.80,SSE,147,9.0,15.0,64,0.00,,,0.00,647,Wunderground v.1.15,2013-09-21 16:19:00,
2013-09-21 11:24:00,68.4,55.3,29.80,South,170,6.0,13.0,63,0.00,,,0.00,656,Wunderground v.1.15,2013-09-21 16:24:00,
2013-09-21 11:29:00,68.7,55.2,29.80,SE,133,8.0,13.0,62,0.00,,,0.00,664,Wunderground v.1.15,2013-09-21 16:29:00,
2013-09-21 11:35:00,69.0,55.4,29.80,SSE,156,9.0,14.0,62,0.00,,,0.00,673,Wunderground v.1.15,2013-09-21 16:35:00,
2013-09-21 11:40:00,69.5,55.0,29.80,South,171,14.0,15.0,60,0.00,,,0.00,684,Wunderground v.1.15,2013-09-21 16:40:00,
2013-09-21 11:45:00,69.7,55.6,29.79,SSE,164,10.0,13.0,61,0.00,,,0.00,693,Wunderground v.1.15,2013-09-21 16:45:00,
2013-09-21 15:32:00,80.1,56.2,29.68,SSW,201,12.0,12.0,44,0.00,,,0.00,668,Wunderground v.1.15,2013-09-21 20:32:00,
2013-09-21 15:37:00,80.1,56.2,29.68,SSW,192,10.0,18.0,44,0.00,,,0.00,657,Wunderground v.1.15,2013-09-21 20:37:00,
2013-09-21 15:42:00,80.0,56.7,29.67,SW,229,10.0,11.0,45,0.00,,,0.00,643,Wunderground v.1.15,2013-09-21 20:42:00,
2013-09-21 15:47:00,80.3,58.2,29.67,South,183,7.0,13.0,47,0.00,,,0.00,636,Wunderground v.1.15,2013-09-21 20:47:00,
2013-09-21 15:52:00,80.3,55.1,29.67,SSW,210,7.0,15.0,42,0.00,,,0.00,345,Wunderground v.1.15,2013-09-21 20:52:00,
2013-09-21 15:57:00,80.3,55.8,29.67,South,188,12.0,18.0,43,0.00,,,0.00,612,Wunderground v.1.15,2013-09-21 20:57:00,
2013-09-21 16:02:00,80.0,56.7,29.67,South,188,16.0,21.0,45,0.00,,,0.00,605,Wunderground v.1.15,2013-09-21 21:02:00,
2013-09-21 16:07:00,79.8,55.9,29.66,South,178,10.0,21.0,44,0.00,,,0.00,592,Wunderground v.1.15,2013-09-21 21:07:00,
2013-09-21 16:12:00,79.8,54.7,29.66,South,175,16.0,22.0,42,0.00,,,0.00,577,Wunderground v.1.15,2013-09-21 21:12:00,
2013-09-21 16:17:00,79.9,55.4,29.66,South,187,15.0,23.0,43,0.00,,,0.00,564,Wunderground v.1.15,2013-09-21 21:17:00,
2013-09-21 16:22:00,79.7,55.9,29.66,SSW,200,7.0,19.0,44,0.00,,,0.00,552,Wunderground v.1.15,2013-09-21 21:22:00,
2013-09-21 16:27:00,79.9,57.3,29.66,South,178,11.0,19.0,46,0.00,,,0.00,540,Wunderground v.1.15,2013-09-21 21:27:00,
2013-09-21 16:32:00,80.0,54.8,29.65,South,190,16.0,18.0,42,0.00,,,0.00,527,Wunderground v.1.15,2013-09-21 21:32:00,
2013-09-21 16:37:00,79.6,54.5,29.65,SSE,164,8.0,19.0,42,0.00,,,0.00,517,Wunderground v.1.15,2013-09-21 21:37:00,
2013-09-21 16:42:00,80.0,52.8,29.66,SSW,206,11.0,20.0,39,0.00,,,0.00,503,Wunderground v.1.15,2013-09-21 21:42:00,
2013-09-21 16:47:00,80.0,53.5,29.65,SSW,195,15.0,21.0,40,0.00,,,0.00,490,Wunderground v.1.15,2013-09-21 21:47:00,
2013-09-21 16:52:00,79.7,51.8,29.65,SSW,207,7.0,17.0,38,0.00,,,0.00,475,Wunderground v.1.15,2013-09-21 21:52:00,
2013-09-21 16:57:00,79.7,52.5,29.65,SSW,206,11.0,22.0,39,0.00,,,0.00,462,Wunderground v.1.15,2013-09-21 21:57:00,
2013-09-21 17:02:00,79.9,52.0,29.65,South,190,11.0,17.0,38,0.00,,,0.00,445,Wunderground v.1.15,2013-09-21 22:02:00,
2013-09-21 17:07:00,79.8,51.2,29.65,South,184,13.0,21.0,37,0.00,,,0.00,431,Wunderground v.1.15,2013-09-21 22:07:00,
2013-09-21 17:13:00,79.7,51.8,29.65,South,186,18.0,18.0,38,0.00,,,0.00,415,Wunderground v.1.15,2013-09-21 22:13:00,
2013-09-21 17:18:00,79.3,52.2,29.65,South,184,10.0,23.0,39,0.00,,,0.00,399,Wunderground v.1.15,2013-09-21 22:18:00,
2013-09-21 20:52:00,64.6,52.1,29.64,SSE,150,8.0,8.0,64,0.00,,,0.00,0,Wunderground v.1.15,2013-09-22 01:52:00,
2013-09-21 20:57:00,63.8,51.8,29.64,SSE,148,7.0,9.0,65,0.00,,,0.00,0,Wunderground v.1.15,2013-09-22 01:57:00,
2013-09-21 21:02:00,63.3,51.7,29.64,SSE,147,8.0,10.0,66,0.00,,,0.00,0,Wunderground v.1.15,2013-09-22 02:02:00,
2013-09-21 21:07:00,63.2,51.6,29.64,SSE,150,8.0,10.0,66,0.00,,,0.00,0,Wunderground v.1.15,2013-09-22 02:07:00,
2013-09-21 21:12:00,63.4,51.4,29.64,SSE,151,8.0,10.0,65,0.00,,,0.00,0,Wunderground v.1.15,2013-09-22 02:12:00,
2013-09-21 21:17:00,63.6,51.2,29.63,SSE,151,6.0,10.0,64,0.00,,,0.00,0,Wunderground v.1.15,2013-09-22 02:17:00,
2013-09-21 21:22:00,64.2,51.3,29.64,SSE,155,8.0,9.0,63,0.00,,,0.00,0,Wunderground v.1.15,2013-09-22 02:22:00,
2013-09-21 21:27:00,65.3,51.1,29.64,SSE,163,8.0,11.0,60,0.00,,,0.00,0,Wunderground v.1.15,2013-09-22 02:27:00,
2013-09-21 21:32:00,66.6,50.9,29.64,SSE,165,9.0,12.0,57,0.00,,,0.00,0,Wunderground v.1.15,2013-09-22 02:32:00,
2013-09-21 21:37:00,67.2,50.5,29.64,SSE,155,11.0,13.0,55,0.00,,,0.00,0,Wunderground v.1.15,2013-09-22 02:37:00,
2013-09-21 21:42:00,67.3,50.6,29.64,SSE,159,10.0,12.0,55,0.00,,,0.00,0,Wunderground v.1.15,2013-09-22 02:42:00,
2013-09-21 21:47:00,67.0,50.3,29.64,South,169,9.0,13.0,55,0.00,,,0.00,0,Wunderground v.1.15,2013-09-22 02:47:00,
2013-09-21 21:52:00,67.0,50.3,29.64,SSE,166,9.0,13.0,55,0.00,,,0.00,0,Wunderground v.1.15,2013-09-22 02:52:00,
2013-09-21 21:57:00,66.9,50.2,29.64,SSE,158,13.0,13.0,55,0.00,,,0.00,0,Wunderground v.1.15,2013-09-22 02:57:00,
2013-09-21 22:02:00,66.7,50.5,29.64,SSE,167,11.0,15.0,56,0.00,,,0.00,0,Wunderground v.1.15,2013-09-22 03:02:00,
2013-09-21 22:07:00,66.5,50.3,29.64,SSE,167,7.0,15.0,56,0.00,,,0.00,0,Wunderground v.1.15,2013-09-22 03:07:00,
2013-09-21 22:12:00,66.4,50.7,29.64,SSE,150,11.0,13.0,57,0.00,,,0.00,0,Wunderground v.1.15,2013-09-22 03:12:00,
2013-09-21 22:17:00,66.2,50.5,29.64,SSE,163,10.0,14.0,57,0.00,,,0.00,0,Wunderground v.1.15,2013-09-22 03:17:00,
2013-09-21 22:22:00,65.8,50.6,29.64,SSE,163,8.0,15.0,58,0.00,,,0.00,0,Wunderground v.1.15,2013-09-22 03:22:00,
2013-09-21 22:27:00,65.7,50.5,29.63,SSE,165,12.0,16.0,58,0.00,,,0.00,0,Wunderground v.1.15,2013-09-22 03:27:00,
2013-09-21 22:32:00,65.8,50.6,29.63,SSE,161,10.0,15.0,58,0.00,,,0.00,0,Wunderground v.1.15,2013-09-22 03:32:00,
2013-09-21 22:37:00,65.7,50.5,29.64,SE,146,10.0,16.0,58,0.00,,,0.00,0,Wunderground v.1.15,2013-09-22 03:37:00,
2013-09-21 22:42:00,65.6,50.4,29.64,SSE,165,8.0,13.0,58,0.00,,,0.00,0,Wunderground v.1.15,2013-09-22 03:42:00,
2013-09-21 22:47:00,65.3,50.6,29.64,SSE,155,7.0,15.0,59,0.00,,,0.00,0,Wunderground v.1.15,2013-09-22 03:47:00,
2013-09-21 22:52:00,65.1,50.4,29.64,SSE,159,8.0,13.0,59,0.00,,,0.00,0,Wunderground v.1.15,2013-09-22 03:52:00,
2013-09-21 22:57:00,64.7,50.5,29.64,South,170,8.0,13.0,60,0.00,,,0.00,0,Wunderground v.1.15,2013-09-22 03:57:00,
2013-09-21 23:01:00,64.6,50.4,29.64,SSE,157,6.0,9.0,60,0.00,,,0.00,0,Wunderground v.1.15,2013-09-22 04:01:00,
2013-09-21 23:06:00,64.2,50.5,29.64,SSE,153,7.0,11.0,61,0.00,,,0.00,0,Wunderground v.1.15,2013-09-22 04:06:00,
2013-09-21 23:11:00,64.0,50.7,29.64,SSE,154,8.0,9.0,62,0.00,,,0.00,0,Wunderground v.1.15,2013-09-22 04:11:00,
2013-09-21 23:16:00,63.8,50.5,29.64,SSE,160,8.0,9.0,62,0.00,,,0.00,0,Wunderground v.1.15,2013-09-22 04:16:00,
2013-09-21 23:21:00,63.5,50.7,29.64,SSE,159,6.0,8.0,63,0.00,,,0.00,0,Wunderground v.1.15,2013-09-22 04:21:00,
2013-09-21 23:26:00,63.2,50.4,29.64,SSE,159,5.0,8.0,63,0.00,,,0.00,0,Wunderground v.1.15,2013-09-22 04:26:00,
2013-09-21 23:31:00,63.1,50.3,29.64,SSE,157,7.0,8.0,63,0.00,,,0.00,0,Wunderground v.1.15,2013-09-22 04:31:00,
2013-09-21 23:36:00,62.9,50.5,29.64,SSE,157,5.0,8.0,64,0.00,,,0.00,0,Wunderground v.1.15,2013-09-22 04:36:00,
2013-09-21 23:41:00,62.4,50.5,29.64,SSE,157,5.0,7.0,65,0.00,,,0.00,0,Wunderground v.1.15,2013-09-22 04:41:00,
2013-09-21 23:46:00,61.9,50.4,29.64,SSE,151,5.0,9.0,66,0.00,,,0.00,0,Wunderground v.1.15,2013-09-22 04:46:00,
2013-09-21 23:51:00,61.5,50.4,29.64,SSE,161,5.0,9.0,67,0.00,,,0.00,0,Wunderground v.1.15,2013-09-22 04:51:00,
2013-09-21 23:56:00,61.7,50.2,29.64,SSE,159,7.0,9.0,66,0.00,,,0.00,0,Wunderground v.1.15,2013-09-22 04:56:00,